Latest Coastal Weather Observations for East Sale

IDV60701

Issued at 2:35 am EST Wednesday 3 September 2014 (issued every 10 minutes, with the page automatically refreshed every 10 minutes)

About coastal observations | Map of coastal stations | Coastal observations for VIC | Marine services | Other Formats
Station Details ID: 085072 Name: EAST SALE AIRPORT Lat: -38.12 Lon: 147.13 Height: 4.6 m
Data from the previous 72 hours. | See also: Recent months at East Sale
Date/Time
EST
Temp

°C
Wind Pressure Rain
since 9am
mm
Weather Cloud Vis
km
Sea
Height
m
Swell
Dir
 
Speed
knots
Gust
knots
hPa Trend Height
m
Period
s
Dir
03/02:30am 5.7 W 11 15 1020.8 - 1.4 - Partly cloudy 10 - - - -
03/02:00am 6.1 W 11 14 1021.1 - 1.4 - Partly cloudy 10 - - - -
03/01:30am 5.4 W 11 13 1021.2 - 1.4 - - 10 - - - -
03/01:00am 5.6 W 11 13 1021.4 - 1.4 - Partly cloudy 10 - - - -
03/12:30am 4.8 WNW 9 10 1021.5 - 1.4 - Partly cloudy 10 - - - -
03/12:00am 4.3 WNW 9 10 1021.5 - 1.4 - - 10 - - - -
 
Date/Time
EST
Temp

°C
Wind Pressure Rain
since 9am
mm
Weather Cloud Vis
km
Sea
Height
m
Swell
Dir
 
Speed
knots
Gust
knots
hPa Trend Height
m
Period
s
Dir
02/11:30pm 5.0 WNW 8 9 1021.6 - 1.4 - Partly cloudy 10 - - - -
02/11:00pm 5.5 W 8 10 1021.6 - 1.4 - - 10 - - - -
02/10:30pm 5.6 WNW 8 9 1021.7 - 1.4 - - 10 - - - -
02/10:00pm 5.0 WNW 7 8 1021.8 - 1.4 - - 10 - - - -
02/09:30pm 5.5 W 6 7 1021.6 - 1.4 - - 10 - - - -
02/09:00pm 6.2 W 8 9 1021.7 - 1.4 - - 10 - - - -
02/08:30pm 6.8 WSW 7 8 1021.4 - 1.4 - - 10 - - - -
02/08:00pm 7.2 W 7 9 1021.0 - 1.4 - - 10 - - - -
02/07:30pm 7.0 W 6 7 1020.9 - 1.4 - - 10 - - - -
02/07:00pm 7.6 WSW 7 8 1020.6 - 1.4 - - 10 - - - -
02/06:30pm 8.9 SW 7 10 1020.4 - 1.4 - - 10 - - - -
02/06:00pm 9.9 S 8 12 1019.9 - 1.4 - - 10 - - - -
02/05:30pm 10.8 S 11 17 1019.5 - 1.4 - Partly cloudy 10 - - - -
02/05:00pm 11.6 SSW 7 13 1019.2 - 1.4 - Partly cloudy 10 - - - -
02/04:30pm 11.4 SSW 13 17 1018.9 - 1.4 - Mostly clear 10 - - - -
02/04:00pm 11.9 S 12 18 1018.4 - 1.4 - Mostly clear 10 - - - -
02/03:30pm 12.6 S 13 20 1018.1 - 1.4 - Mostly clear 10 - - - -
02/03:00pm 12.2 S 9 12 1017.8 R 1.4 Fine Partly cloudy 20 - - - -
02/02:30pm 11.9 S 14 17 1017.5 - 1.2 - Partly cloudy 10 - - - -
02/02:00pm 12.6 SW 10 13 1017.3 - 1.2 - Partly cloudy 8 - - - -
02/01:30pm 11.2 SW 10 14 1017.2 - 1.2 - Mostly clear 7 - - - -
02/01:00pm 11.4 SSW 7 11 1017.0 - 1.0 - Partly cloudy 10 - - - -
02/12:30pm 11.3 WSW 8 11 1016.9 - 1.0 - Partly cloudy 10 - - - -
02/12:00pm 9.9 WSW 10 13 1016.8 - 1.0 - Cloudy 8 - - - -
02/11:30am 9.6 WSW 9 14 1016.6 - 1.0 - Mostly clear 6 - - - -
02/11:20am 9.0 WSW 11 14 1016.7 - 1.0 Showers Mostly clear 5 - - - -
02/11:00am 9.4 WSW 10 13 1016.7 - 0.6 - Partly cloudy 7 - - - -
02/10:30am 9.6 SSW 10 13 1016.6 - 0.6 Showers Mostly clear 7 - - - -
02/10:00am 8.9 SSE 10 13 1016.7 - 0.4 Showers Partly cloudy 4 - - - -
02/09:30am 10.2 W 12 15 1015.6 - 0.0 - Partly cloudy 8 - - - -
02/09:00am 9.5 W 11 14 1015.6 R 3.4 Fine Partly cloudy 25 - - - -
02/08:30am 9.4 W 10 14 1015.3 - 3.4 Showers Partly cloudy 8 - - - -
02/08:00am 8.8 W 10 15 1015.0 - 3.4 Showers Partly cloudy 8 - - - -
02/07:30am 8.7 W 10 14 1014.7 - 2.8 - Partly cloudy 10 - - - -
02/07:00am 8.6 W 11 14 1014.0 - 2.8 - Mostly clear 10 - - - -
02/06:30am 8.3 W 10 13 1013.6 - 2.8 - Partly cloudy 10 - - - -
02/06:00am 8.7 W 10 13 1013.3 - 2.8 - Cloudy 10 - - - -
02/05:30am 9.0 W 12 16 1012.8 - 2.8 - Partly cloudy 10 - - - -
02/05:00am 9.3 W 11 15 1012.2 - 2.8 - Cloudy 10 - - - -
02/04:30am 9.3 W 11 16 1011.8 - 2.8 - Partly cloudy 10 - - - -
02/04:00am 9.4 W 12 15 1011.7 - 2.8 - Cloudy 10 - - - -
02/03:30am 9.7 W 10 13 1011.7 - 2.8 - Cloudy 10 - - - -
02/03:00am 9.7 W 9 13 1011.7 - 2.8 - Cloudy 10 - - - -
02/02:30am 9.9 W 10 13 1011.4 - 2.8 - Cloudy 10 - - - -
02/02:00am 9.9 W 9 11 1011.4 - 2.8 - Partly cloudy 10 - - - -
02/01:30am 10.2 W 11 13 1011.4 - 2.8 - Cloudy 10 - - - -
02/01:00am 9.9 W 9 11 1011.3 - 2.8 - Partly cloudy 10 - - - -
02/12:30am 9.7 WNW 7 8 1011.3 - 2.8 - Cloudy 10 - - - -
02/12:00am 9.7 W 8 8 1011.4 - 2.8 - Cloudy 10 - - - -
 
Date/Time
EST
Temp

°C
Wind Pressure Rain
since 9am
mm
Weather Cloud Vis
km
Sea
Height
m
Swell
Dir
 
Speed
knots
Gust
knots
hPa Trend Height
m
Period
s
Dir
01/11:30pm 9.5 W 7 9 1011.2 - 2.8 - Cloudy 10 - - - -
01/11:00pm 9.7 W 8 9 1011.2 - 2.8 - Partly cloudy 10 - - - -
01/10:30pm 9.7 WNW 9 11 1011.0 - 2.8 - Partly cloudy 10 - - - -
01/10:00pm 9.9 WNW 7 8 1011.1 - 2.8 - Partly cloudy 10 - - - -
01/09:30pm 10.1 WNW 7 9 1011.0 - 2.4 - Partly cloudy 10 - - - -
01/09:00pm 10.4 WNW 9 11 1010.9 - 2.0 - Cloudy 10 - - - -
01/08:30pm 10.5 W 9 11 1010.7 - 1.8 - Partly cloudy 10 - - - -
01/08:00pm 10.7 W 7 8 1010.6 - 1.6 - Cloudy 10 - - - -
01/07:30pm 11.0 NW 9 10 1010.2 - 1.4 - Cloudy 10 - - - -
01/07:00pm 11.3 W 11 14 1010.1 - 1.4 - Partly cloudy 10 - - - -
01/06:30pm 11.5 W 12 18 1009.9 - 1.4 - Partly cloudy 10 - - - -
01/06:00pm 11.6 W 10 14 1009.5 - 1.2 - Cloudy 10 - - - -
01/05:30pm 11.7 W 10 13 1008.9 - 1.0 - Cloudy 10 - - - -
01/05:00pm 11.9 W 9 12 1008.5 - 0.8 - Cloudy 10 - - - -
01/04:30pm 12.1 WSW 11 16 1008.4 - 0.6 Rain Cloudy 8 - - - -
01/04:00pm 12.9 WSW 16 22 1007.6 - 0.0 Rain Cloudy 10 - - - -
01/03:46pm 13.4 WSW 16 26 1007.4 - 0.0 Rain Cloudy 10 - - - -
01/03:30pm 14.4 WSW 11 19 1007.3 - 0.0 Rain Mostly clear 10 - - - -
01/03:00pm 15.7 WSW 14 20 1006.8 R 0.0 Fine Mostly cloudy 30 - - - -
01/02:30pm 16.5 WSW 13 17 1006.6 - 0.0 - Cloudy 10 - - - -
01/02:00pm 17.1 SW 11 15 1006.4 - 0.0 - Cloudy 10 - - - -
01/01:41pm 17.5 SW 19 23 1006.6 - 0.0 - Cloudy 10 - - - -
01/01:30pm 18.0 WSW 8 11 1006.2 - 0.0 - Cloudy 10 - - - -
01/01:00pm 19.3 N 6 9 1006.1 - 0.0 - Cloudy 10 - - - -
01/12:30pm 19.8 N 9 11 1006.3 - 0.0 - Partly cloudy 10 - - - -
01/12:00pm 18.8 N 10 15 1006.9 - 0.0 - Cloudy 10 - - - -
01/11:30am 18.4 N 11 14 1007.1 - 0.0 - Partly cloudy 10 - - - -
01/11:00am 17.1 N 10 15 1007.8 - 0.0 - - 10 - - - -
01/10:30am 15.8 N 9 11 1008.1 - 0.0 - Partly cloudy 10 - - - -
01/10:00am 14.6 NNE 8 10 1008.4 - 0.0 - Cloudy 10 - - - -
01/09:30am 14.6 NE 8 9 1009.0 - 0.0 - Partly cloudy 10 - - - -
01/09:00am 15.4 NNE 4 7 1009.5 F 0.2 Rain Mostly cloudy 25 - - - -
01/08:30am 15.1 N 9 14 1009.2 - 0.2 Rain Partly cloudy 10 - - - -
01/08:00am 12.6 ENE 4 7 1009.6 - 0.2 Rain Partly cloudy 10 - - - -
01/07:30am 10.9 ENE 3 5 1009.8 - 0.2 - Cloudy 10 - - - -
01/07:00am 10.1 N 4 6 1010.1 - 0.2 - Partly cloudy 10 - - - -
01/06:30am 10.0 NW 4 7 1010.2 - 0.2 - Partly cloudy 10 - - - -
01/06:00am 10.2 NW 4 6 1010.2 - 0.2 - Cloudy 10 - - - -
01/05:30am 10.3 N 4 6 1010.1 - 0.2 - Cloudy 10 - - - -
01/05:00am 10.4 NNE 3 6 1010.0 - 0.2 - Cloudy 10 - - - -
01/04:30am 9.7 ENE 5 6 1009.9 - 0.2 - Cloudy 10 - - - -
01/04:00am 10.6 ESE 5 6 1010.2 - 0.2 - Partly cloudy 10 - - - -
01/03:30am 9.9 S 3 4 1010.5 - 0.2 - Cloudy 10 - - - -
01/03:00am 9.9 SSW 3 6 1010.6 - 0.2 - Cloudy 10 - - - -
01/02:30am 10.6 N 5 7 1010.4 - 0.2 - Cloudy 10 - - - -
01/02:00am 10.7 NNE 7 9 1010.9 - 0.2 - Cloudy 10 - - - -
01/01:30am 10.7 NNE 7 8 1011.4 - 0.2 - Cloudy 10 - - - -
01/01:00am 9.5 ENE 6 7 1012.0 - 0.2 - Cloudy 10 - - - -
01/12:30am 9.3 ENE 4 6 1012.5 - 0.2 - Cloudy 10 - - - -
01/12:00am 9.2 ENE 5 6 1012.9 - 0.2 - Cloudy 10 - - - -
 
Date/Time
EST
Temp

°C
Wind Pressure Rain
since 9am
mm
Weather Cloud Vis
km
Sea
Height
m
Swell
Dir
 
Speed
knots
Gust
knots
hPa Trend Height
m
Period
s
Dir
31/11:30pm 9.6 ESE 4 5 1013.2 - 0.2 - Partly cloudy 10 - - - -
31/11:00pm 9.4 E 3 5 1013.7 - 0.2 - Partly cloudy 10 - - - -
31/10:30pm 9.8 NNE 3 6 1014.0 - 0.2 - Partly cloudy 10 - - - -
31/10:00pm 9.6 ESE 2 3 1014.4 - 0.2 - Partly cloudy 10 - - - -
31/09:30pm 10.5 E 3 4 1014.8 - 0.2 - Cloudy 10 - - - -
31/09:00pm 11.3 NE 5 7 1014.9 - 0.2 - Cloudy 10 - - - -
31/08:30pm 11.2 ENE 4 5 1015.1 - 0.2 - Cloudy 10 - - - -
31/08:00pm 11.4 NE 5 6 1015.1 - 0.2 - Partly cloudy 10 - - - -
31/07:30pm 11.3 E 4 5 1015.1 - 0.2 - Partly cloudy 10 - - - -
31/07:00pm 11.4 ENE 4 7 1015.2 - 0.2 - - 10 - - - -
31/06:30pm 11.9 ENE 7 8 1014.9 - 0.2 - - 10 - - - -
31/06:00pm 13.5 E 8 9 1014.8 - 0.2 - - 10 - - - -
31/05:30pm 14.6 E 11 12 1014.7 - 0.2 - - 10 - - - -
31/05:00pm 17.3 E 11 13 1014.5 - 0.2 - - 10 - - - -
31/04:30pm 18.5 E 10 12 1014.4 - 0.2 - - 10 - - - -
31/04:00pm 17.6 E 10 12 1014.6 - 0.2 - - 10 - - - -
31/03:30pm 19.5 E 10 11 1014.8 - 0.2 - - 10 - - - -
31/03:00pm 19.4 E 9 11 1015.1 F 0.2 Fine Mostly clear 30 - - - -
31/02:30pm 19.7 ESE 7 9 1015.4 - 0.2 - - 10 - - - -
31/02:00pm 19.6 E 5 8 1015.6 - 0.2 - - 10 - - - -
31/01:30pm 19.1 E 5 8 1016.0 - 0.2 - - 10 - - - -
31/01:00pm 17.8 E 4 6 1016.7 - 0.2 - - 10 - - - -
31/12:30pm 17.0 E 4 6 1017.3 - 0.2 - - 10 - - - -
31/12:00pm 15.9 NNE 3 5 1017.9 - 0.2 - - 10 - - - -
31/11:30am 15.0 ENE 3 5 1018.5 - 0.2 - - 10 - - - -
31/11:00am 14.4 NNW 3 5 1019.0 - 0.0 - - 10 - - - -
31/10:30am 12.4 NNW 4 5 1019.3 - 0.0 - - 10 - - - -
31/10:00am 10.4 WNW 4 5 1019.8 - 0.0 - - 10 - - - -
31/09:37am 8.5 NW 5 6 1020.1 - 0.0 - Partly cloudy 10 - - - -
31/09:30am 8.4 NW 5 6 1020.1 - 0.0 - Partly cloudy 10 - - - -
31/09:00am 7.2 WNW 5 6 1020.3 F 0.0 Fog Cloudy 0.5 - - - -
31/08:30am 5.6 NW 4 6 1020.5 - 0.0 - Cloudy 0.2 - - - -
31/08:00am 4.3 WNW 5 6 1020.7 - 0.0 - Cloudy 0.2 - - - -
31/07:30am 3.2 WNW 4 6 1020.6 - 0.0 - Cloudy 0.7 - - - -
31/07:00am 2.5 NW 5 6 1020.4 - 0.0 - Cloudy 0.8 - - - -
31/06:47am 2.8 NNW 4 5 1020.2 - 0.0 - Partly cloudy 5 - - - -
31/06:34am 2.9 WNW 5 5 1020.3 - 0.0 - Partly cloudy 10 - - - -
31/06:30am 2.9 WNW 5 5 1020.2 - 0.0 - Partly cloudy 10 - - - -
31/06:18am 3.1 WNW 4 6 1020.2 - 0.0 - Partly cloudy 9 - - - -
31/06:15am 3.2 NW 5 6 1020.2 - 0.0 - Partly cloudy 10 - - - -
31/06:00am 3.6 NW 6 7 1020.1 - 0.0 - Cloudy 1 - - - -
31/05:30am 4.0 NW 5 7 1019.9 - 0.0 - Cloudy 0.1 - - - -
31/05:00am 4.4 NW 4 5 1019.8 - 0.0 - Cloudy 0.5 - - - -
31/04:30am 4.6 NNW 4 5 1019.8 - 0.0 - Cloudy 0.1 - - - -
31/04:00am 4.5 NW 3 4 1019.8 - 0.0 - Cloudy 0.1 - - - -
31/03:30am 4.4 W 3 4 1020.1 - 0.0 - Cloudy 0.1 - - - -
31/03:00am 5.1 W 4 5 1020.3 - 0.0 - Cloudy 0.2 - - - -

Other Formats:

Comma delimited format used in spreadsheet applications
http://www.bom.gov.au/fwo/IDV60701/IDV60701.94907.axf

JavaScript Object Notation format (JSON) in row-major order
http://www.bom.gov.au/fwo/IDV60701/IDV60701.94907.json